Time;durP1;ratioP1;P1;durP2;ratioP2;P2;SDS_P1;SDS_P2;PMS_P1;PMS_P2;Temp;Humidity;BMP_temperature;BMP_pressure;BME280_temperature;BME280_humidity;BME280_pressure;Samples;Min_cycle;Max_cycle;Signal;HPM_P1;HPM_P2
2022/05/27 00:00:53;;;;;;;0.20;0.20;;;;;;;;;;1799983;79;26629;-48
2022/05/27 00:03:21;;;;;;;0.23;0.23;;;;;;;;;;1802514;78;26301;-53
2022/05/27 00:05:50;;;;;;;1.00;0.20;;;;;;;;;;1800670;79;26313;-46
2022/05/27 00:08:18;;;;;;;0.68;0.30;;;;;;;;;;1799166;78;26375;-51
2022/05/27 00:10:45;;;;;;;0.30;0.30;;;;;;;;;;1794736;79;26337;-46
2022/05/27 00:13:12;;;;;;;0.20;0.20;;;;;;;;;;1798286;78;26803;-49
2022/05/27 00:15:40;;;;;;;0.25;0.25;;;;;;;;;;1799686;79;26758;-47
2022/05/27 00:18:08;;;;;;;0.35;0.35;;;;;;;;;;1800012;79;26780;-47
2022/05/27 00:20:36;;;;;;;0.20;0.20;;;;;;;;;;1794256;79;26379;-46
2022/05/27 00:23:04;;;;;;;0.40;0.40;;;;;;;;;;1800945;78;26750;-46
2022/05/27 00:25:32;;;;;;;0.30;0.30;;;;;;;;;;1800885;78;26282;-52
2022/05/27 00:28:01;;;;;;;0.20;0.20;;;;;;;;;;1800554;79;26569;-49
2022/05/27 00:30:28;;;;;;;0.20;0.20;;;;;;;;;;1800168;79;26426;-46
2022/05/27 00:32:56;;;;;;;0.13;0.13;;;;;;;;;;1799857;78;26281;-48
2022/05/27 00:35:23;;;;;;;0.23;0.23;;;;;;;;;;1798203;78;26348;-50
2022/05/27 00:37:51;;;;;;;0.30;0.30;;;;;;;;;;1788440;78;26779;-57
2022/05/27 00:40:19;;;;;;;0.20;0.20;;;;;;;;;;1796819;79;26363;-56
2022/05/27 00:42:47;;;;;;;0.20;0.20;;;;;;;;;;1800652;79;26622;-51
2022/05/27 00:45:19;;;;;;;0.20;0.20;;;;;;;;;;1797908;80;26366;-46
2022/05/27 00:47:48;;;;;;;0.33;0.10;;;;;;;;;;1796752;80;27319;-51
2022/05/27 00:50:17;;;;;;;1.17;0.28;;;;;;;;;;1799705;78;26290;-48
2022/05/27 00:52:45;;;;;;;0.10;0.10;;;;;;;;;;1798818;79;26293;-53
2022/05/27 00:55:14;;;;;;;0.20;0.20;;;;;;;;;;1797945;80;26284;-52
2022/05/27 00:57:43;;;;;;;0.30;0.30;;;;;;;;;;1796298;78;26734;-52
2022/05/27 01:00:12;;;;;;;0.20;0.20;;;;;;;;;;1796184;79;26360;-49
2022/05/27 01:02:40;;;;;;;0.20;0.20;;;;;;;;;;1800626;79;25847;-50
2022/05/27 01:05:09;;;;;;;0.20;0.20;;;;;;;;;;1789468;79;26308;-48
2022/05/27 01:07:37;;;;;;;1.15;0.28;;;;;;;;;;1771949;79;26854;-56
2022/05/27 01:10:05;;;;;;;0.20;0.20;;;;;;;;;;1786610;79;26355;-54
2022/05/27 01:12:49;;;;;;;0.20;0.20;;;;;;;;;;1799712;79;26781;-48
2022/05/27 01:15:18;;;;;;;0.15;0.15;;;;;;;;;;1799379;80;26810;-47
2022/05/27 01:17:49;;;;;;;0.20;0.20;;;;;;;;;;1795282;79;26622;-54
2022/05/27 01:20:22;;;;;;;0.20;0.20;;;;;;;;;;1790094;78;26750;-48
2022/05/27 01:23:08;;;;;;;0.15;0.15;;;;;;;;;;1792620;79;26704;-48
2022/05/27 01:25:48;;;;;;;0.20;0.20;;;;;;;;;;1810463;79;26371;-50
2022/05/27 01:28:20;;;;;;;0.20;0.20;;;;;;;;;;1820252;78;26555;-54
2022/05/27 01:30:52;;;;;;;0.20;0.20;;;;;;;;;;1839510;78;26356;-45
2022/05/27 01:33:29;;;;;;;0.17;0.17;;;;;;;;;;1809184;79;26387;-44
2022/05/27 01:36:01;;;;;;;0.10;0.10;;;;;;;;;;1813510;78;26321;-47
2022/05/27 01:38:45;;;;;;;0.13;0.13;;;;;;;;;;1797184;78;26352;-45
2022/05/27 01:41:14;;;;;;;0.20;0.20;;;;;;;;;;1806292;79;25851;-49
2022/05/27 01:43:51;;;;;;;0.25;0.25;;;;;;;;;;1808500;79;26870;-51
2022/05/27 01:46:32;;;;;;;1.45;0.10;;;;;;;;;;1804373;79;26363;-50
2022/05/27 01:49:04;;;;;;;0.33;0.13;;;;;;;;;;1798884;78;26326;-51
2022/05/27 01:51:33;;;;;;;0.20;0.20;;;;;;;;;;1809167;79;26301;-48
2022/05/27 01:54:04;;;;;;;0.20;0.20;;;;;;;;;;1809947;79;26321;-53
2022/05/27 01:56:39;;;;;;;0.10;0.10;;;;;;;;;;1784200;79;26347;-51
2022/05/27 01:59:08;;;;;;;0.13;0.13;;;;;;;;;;1767273;79;26391;-52
2022/05/27 02:01:36;;;;;;;0.23;0.23;;;;;;;;;;1780216;80;26367;-53
2022/05/27 02:04:05;;;;;;;0.30;0.30;;;;;;;;;;1789696;78;26409;-48
2022/05/27 02:06:34;;;;;;;0.20;0.20;;;;;;;;;;1798895;79;26300;-48
2022/05/27 02:09:04;;;;;;;0.10;0.10;;;;;;;;;;1812607;78;26297;-51
2022/05/27 02:11:32;;;;;;;0.10;0.10;;;;;;;;;;1785856;79;26738;-47
2022/05/27 02:14:13;;;;;;;0.20;0.20;;;;;;;;;;1808589;79;26286;-48
2022/05/27 02:16:44;;;;;;;0.30;0.20;;;;;;;;;;1807777;79;26243;-45
2022/05/27 02:19:29;;;;;;;0.25;0.25;;;;;;;;;;1818979;78;26302;-53
2022/05/27 02:22:10;;;;;;;0.10;0.10;;;;;;;;;;1808117;78;26345;-49
2022/05/27 02:24:39;;;;;;;0.20;0.20;;;;;;;;;;1802643;79;26489;-51
2022/05/27 02:27:10;;;;;;;0.20;0.20;;;;;;;;;;1798557;79;26320;-47
2022/05/27 02:29:39;;;;;;;0.10;0.10;;;;;;;;;;1804349;79;26320;-47
2022/05/27 02:32:08;;;;;;;0.05;0.05;;;;;;;;;;1819470;78;26309;-48
2022/05/27 02:37:27;;;;;;;1.12;0.20;;;;;;;;;;1829385;78;26769;-46
2022/05/27 02:39:55;;;;;;;0.13;0.13;;;;;;;;;;1801135;78;26730;-47
2022/05/27 02:42:36;;;;;;;0.10;0.10;;;;;;;;;;1803238;78;26347;-47
2022/05/27 02:45:14;;;;;;;0.08;0.08;;;;;;;;;;1802865;79;26363;-50
2022/05/27 02:47:46;;;;;;;0.10;0.10;;;;;;;;;;1802482;79;26300;-45
2022/05/27 02:50:15;;;;;;;0.20;0.20;;;;;;;;;;1805848;78;26321;-49
2022/05/27 02:52:44;;;;;;;1.17;0.20;;;;;;;;;;1803546;78;26249;-47
2022/05/27 02:55:18;;;;;;;0.20;0.20;;;;;;;;;;1803262;78;26398;-51
2022/05/27 02:57:50;;;;;;;0.30;0.10;;;;;;;;;;1803771;79;26328;-45
2022/05/27 03:00:19;;;;;;;0.20;0.20;;;;;;;;;;1793177;79;27472;-49
2022/05/27 03:02:46;;;;;;;3.60;0.20;;;;;;;;;;1799015;78;26691;-45
2022/05/27 03:05:15;;;;;;;1.17;0.28;;;;;;;;;;1780612;79;26323;-53
2022/05/27 03:08:02;;;;;;;0.37;0.37;;;;;;;;;;1804358;78;26608;-46
2022/05/27 03:10:36;;;;;;;0.53;0.20;;;;;;;;;;1797152;78;26819;-55
2022/05/27 03:13:22;;;;;;;0.20;0.20;;;;;;;;;;1800545;78;26414;-46
2022/05/27 03:15:53;;;;;;;0.20;0.20;;;;;;;;;;1803214;78;26789;-51
2022/05/27 03:18:22;;;;;;;0.10;0.10;;;;;;;;;;1802917;78;26309;-46
2022/05/27 03:21:03;;;;;;;0.20;0.20;;;;;;;;;;1804178;78;26383;-51
2022/05/27 03:23:35;;;;;;;0.20;0.20;;;;;;;;;;1797603;78;26389;-55
2022/05/27 03:26:13;;;;;;;0.20;0.20;;;;;;;;;;1792144;78;26328;-46
2022/05/27 03:28:41;;;;;;;0.55;0.20;;;;;;;;;;1797109;79;26325;-57
2022/05/27 03:31:10;;;;;;;0.72;0.40;;;;;;;;;;1800335;78;26297;-58
2022/05/27 03:33:51;;;;;;;1.10;0.30;;;;;;;;;;1800009;79;26292;-45
2022/05/27 03:36:29;;;;;;;0.20;0.20;;;;;;;;;;1797243;79;26618;-50
2022/05/27 03:38:59;;;;;;;1.47;0.30;;;;;;;;;;1796446;79;26350;-47
2022/05/27 03:41:31;;;;;;;0.10;0.10;;;;;;;;;;1796113;79;26345;-52
2022/05/27 03:43:58;;;;;;;0.10;0.10;;;;;;;;;;1799804;78;26269;-48
2022/05/27 03:46:30;;;;;;;1.37;0.10;;;;;;;;;;1798314;79;26607;-47
2022/05/27 03:48:58;;;;;;;0.20;0.20;;;;;;;;;;1819699;78;26353;-51
2022/05/27 03:51:27;;;;;;;0.10;0.10;;;;;;;;;;1796395;79;26320;-51
2022/05/27 03:54:03;;;;;;;0.13;0.13;;;;;;;;;;1800672;78;26380;-52
2022/05/27 03:56:32;;;;;;;0.10;0.10;;;;;;;;;;1801468;78;26286;-48
2022/05/27 03:59:00;;;;;;;0.20;0.20;;;;;;;;;;1798617;79;27034;-51
2022/05/27 04:01:31;;;;;;;2.08;0.20;;;;;;;;;;1800151;78;26407;-49
2022/05/27 04:04:00;;;;;;;1.20;0.15;;;;;;;;;;1800551;79;26253;-47
2022/05/27 04:06:28;;;;;;;0.35;0.30;;;;;;;;;;1801024;79;26833;-49
2022/05/27 04:08:57;;;;;;;0.23;0.20;;;;;;;;;;1806704;78;26922;-52
2022/05/27 04:11:25;;;;;;;0.10;0.10;;;;;;;;;;1789535;79;26395;-54
2022/05/27 04:13:53;;;;;;;0.10;0.10;;;;;;;;;;1799656;78;26860;-52
2022/05/27 04:16:20;;;;;;;0.98;0.30;;;;;;;;;;1799729;79;26726;-46
2022/05/27 04:18:47;;;;;;;0.10;0.10;;;;;;;;;;1801102;79;26761;-48
2022/05/27 04:21:15;;;;;;;0.00;0.00;;;;;;;;;;1800847;79;26773;-49
2022/05/27 04:23:42;;;;;;;0.10;0.10;;;;;;;;;;1797120;79;26337;-49
2022/05/27 04:26:09;;;;;;;0.00;0.00;;;;;;;;;;1795165;80;26313;-48
2022/05/27 04:28:37;;;;;;;0.15;0.15;;;;;;;;;;1795448;80;26309;-50
2022/05/27 04:31:05;;;;;;;0.20;0.20;;;;;;;;;;1776430;78;25726;-53
2022/05/27 04:33:32;;;;;;;0.10;0.10;;;;;;;;;;1808815;78;26312;-49
2022/05/27 04:36:00;;;;;;;0.20;0.20;;;;;;;;;;1781650;79;26289;-47
2022/05/27 04:38:28;;;;;;;0.30;0.13;;;;;;;;;;1784957;79;27048;-50
2022/05/27 04:40:56;;;;;;;1.30;0.35;;;;;;;;;;1796930;78;26298;-52
2022/05/27 04:43:24;;;;;;;1.98;0.20;;;;;;;;;;1783311;78;26259;-46
2022/05/27 04:45:51;;;;;;;0.20;0.20;;;;;;;;;;1795438;78;26352;-50
2022/05/27 04:48:20;;;;;;;0.82;0.30;;;;;;;;;;1794544;78;25826;-50
2022/05/27 04:50:47;;;;;;;0.72;0.20;;;;;;;;;;1790706;78;26294;-52
2022/05/27 04:53:15;;;;;;;0.72;0.25;;;;;;;;;;1794636;78;26313;-49
2022/05/27 04:55:43;;;;;;;0.53;0.25;;;;;;;;;;1797343;78;26715;-50
2022/05/27 04:58:11;;;;;;;0.35;0.20;;;;;;;;;;1794509;78;26375;-54
2022/05/27 05:00:43;;;;;;;0.95;0.30;;;;;;;;;;1793399;79;26298;-51
2022/05/27 05:03:11;;;;;;;0.23;0.20;;;;;;;;;;1790981;78;26384;-54
2022/05/27 05:05:39;;;;;;;1.17;0.20;;;;;;;;;;1794625;78;27431;-47
2022/05/27 05:08:07;;;;;;;1.65;0.30;;;;;;;;;;1790324;78;26289;-52
2022/05/27 05:10:35;;;;;;;0.30;0.30;;;;;;;;;;1792073;78;26399;-52
2022/05/27 05:13:03;;;;;;;0.55;0.20;;;;;;;;;;1794224;78;26309;-46
2022/05/27 05:15:30;;;;;;;3.20;0.25;;;;;;;;;;1794538;78;26775;-56
2022/05/27 05:17:58;;;;;;;0.28;0.28;;;;;;;;;;1793664;78;26325;-56
2022/05/27 05:20:27;;;;;;;0.20;0.20;;;;;;;;;;1790648;78;26407;-52
2022/05/27 05:22:54;;;;;;;0.55;0.20;;;;;;;;;;1794205;78;26399;-49
2022/05/27 05:25:23;;;;;;;0.28;0.28;;;;;;;;;;1793384;80;26297;-48
2022/05/27 05:27:52;;;;;;;0.37;0.30;;;;;;;;;;1794570;80;26309;-49
2022/05/27 05:30:21;;;;;;;3.10;0.30;;;;;;;;;;1791380;80;26379;-52
2022/05/27 05:32:48;;;;;;;0.70;0.50;;;;;;;;;;1793935;78;26360;-56
2022/05/27 05:35:16;;;;;;;0.30;0.30;;;;;;;;;;1793620;78;26282;-51
2022/05/27 05:37:44;;;;;;;1.55;0.35;;;;;;;;;;1791461;78;26282;-48
2022/05/27 05:40:12;;;;;;;0.20;0.20;;;;;;;;;;1794074;78;26741;-52
2022/05/27 05:42:39;;;;;;;0.33;0.33;;;;;;;;;;1797545;78;26399;-54
2022/05/27 05:45:09;;;;;;;0.40;0.40;;;;;;;;;;1793789;78;26636;-51
2022/05/27 05:47:36;;;;;;;0.40;0.40;;;;;;;;;;1779435;80;26280;-52
2022/05/27 05:50:03;;;;;;;0.57;0.37;;;;;;;;;;1786745;78;26219;-49
2022/05/27 05:52:31;;;;;;;0.93;0.40;;;;;;;;;;1794625;80;26301;-49
2022/05/27 05:54:58;;;;;;;0.53;0.40;;;;;;;;;;1792567;78;26277;-47
2022/05/27 05:57:25;;;;;;;1.17;0.23;;;;;;;;;;1791605;80;26288;-55
2022/05/27 05:59:52;;;;;;;1.75;0.50;;;;;;;;;;1794033;80;26340;-50
2022/05/27 06:02:20;;;;;;;1.30;0.60;;;;;;;;;;1794418;78;26314;-53
2022/05/27 06:04:47;;;;;;;0.90;0.50;;;;;;;;;;1794752;79;26289;-46
2022/05/27 06:07:15;;;;;;;1.22;0.60;;;;;;;;;;1793466;80;26606;-48
2022/05/27 06:09:43;;;;;;;1.20;0.62;;;;;;;;;;1790711;78;26414;-46
2022/05/27 06:12:10;;;;;;;1.95;1.10;;;;;;;;;;1794509;78;26298;-51
2022/05/27 06:14:38;;;;;;;0.62;0.50;;;;;;;;;;1794223;80;26294;-52
2022/05/27 06:17:05;;;;;;;0.50;0.50;;;;;;;;;;1780584;78;26357;-52
2022/05/27 06:19:32;;;;;;;0.85;0.55;;;;;;;;;;1789018;80;26297;-52
2022/05/27 06:22:00;;;;;;;0.53;0.53;;;;;;;;;;1798136;78;26348;-51
2022/05/27 06:24:27;;;;;;;1.55;0.60;;;;;;;;;;1800470;78;26316;-51
2022/05/27 06:26:54;;;;;;;0.90;0.70;;;;;;;;;;1789794;78;26327;-50
2022/05/27 06:34:53;;;;;;;0.60;0.60;;;;;;;;;;1803907;78;26310;-51
2022/05/27 06:37:24;;;;;;;0.42;0.42;;;;;;;;;;1803799;78;26284;-55
2022/05/27 06:39:52;;;;;;;0.72;0.40;;;;;;;;;;1802609;78;26852;-50
2022/05/27 06:42:19;;;;;;;0.40;0.40;;;;;;;;;;1805056;78;26257;-49
2022/05/27 06:44:46;;;;;;;0.60;0.60;;;;;;;;;;1803716;78;26356;-50
2022/05/27 06:47:14;;;;;;;1.35;0.40;;;;;;;;;;1800996;78;26305;-53
2022/05/27 06:49:46;;;;;;;0.80;0.70;;;;;;;;;;1805115;78;26221;-46
2022/05/27 06:52:11;;;;;;;2.02;0.70;;;;;;;;;;1802582;78;26887;-48
2022/05/27 06:54:38;;;;;;;0.47;0.47;;;;;;;;;;1803546;78;26348;-51
2022/05/27 06:57:06;;;;;;;0.50;0.50;;;;;;;;;;1800826;78;26308;-48
2022/05/27 06:59:34;;;;;;;1.60;0.72;;;;;;;;;;1802160;78;26778;-54
2022/05/27 07:02:02;;;;;;;0.70;0.62;;;;;;;;;;1801629;78;26273;-49
2022/05/27 07:04:29;;;;;;;0.88;0.70;;;;;;;;;;1784407;79;26383;-47
2022/05/27 07:06:57;;;;;;;0.68;0.68;;;;;;;;;;1819461;78;26281;-51
2022/05/27 07:09:25;;;;;;;1.17;0.60;;;;;;;;;;1811731;78;26663;-54
2022/05/27 07:11:53;;;;;;;0.57;0.57;;;;;;;;;;1803509;78;26343;-49
2022/05/27 07:14:21;;;;;;;0.60;0.60;;;;;;;;;;1803484;78;26286;-50
2022/05/27 07:16:48;;;;;;;0.95;0.60;;;;;;;;;;1803437;78;26359;-48
2022/05/27 07:19:19;;;;;;;0.93;0.78;;;;;;;;;;1803391;78;26309;-50
2022/05/27 07:21:45;;;;;;;1.22;0.70;;;;;;;;;;1799491;78;26282;-48
2022/05/27 07:24:14;;;;;;;0.53;0.53;;;;;;;;;;1802271;78;26765;-48
2022/05/27 07:26:42;;;;;;;1.85;0.60;;;;;;;;;;1799525;78;26355;-51
2022/05/27 07:29:09;;;;;;;0.88;0.65;;;;;;;;;;1801087;78;26259;-53
2022/05/27 07:31:38;;;;;;;0.78;0.78;;;;;;;;;;1799858;78;26316;-54
2022/05/27 07:34:05;;;;;;;3.90;0.70;;;;;;;;;;1801012;78;26371;-62
2022/05/27 07:36:32;;;;;;;3.22;0.90;;;;;;;;;;1798063;78;26302;-62
2022/05/27 07:39:00;;;;;;;0.85;0.70;;;;;;;;;;1798358;78;26833;-60
2022/05/27 07:41:27;;;;;;;1.52;0.80;;;;;;;;;;1800599;78;26895;-56
2022/05/27 07:43:55;;;;;;;2.58;0.95;;;;;;;;;;1797366;78;26304;-53
2022/05/27 07:46:23;;;;;;;0.68;0.60;;;;;;;;;;1797514;78;27420;-53
2022/05/27 07:48:51;;;;;;;2.58;0.80;;;;;;;;;;1797813;78;26266;-49
2022/05/27 07:51:18;;;;;;;0.82;0.70;;;;;;;;;;1797329;78;26317;-61
2022/05/27 07:53:45;;;;;;;2.27;0.70;;;;;;;;;;1798600;78;26290;-52
2022/05/27 07:56:13;;;;;;;1.57;0.80;;;;;;;;;;1798858;78;26326;-63
2022/05/27 07:58:40;;;;;;;2.60;0.50;;;;;;;;;;1797602;78;26355;-60
2022/05/27 08:01:08;;;;;;;2.45;0.65;;;;;;;;;;1799450;78;26307;-57
2022/05/27 08:03:36;;;;;;;3.00;0.88;;;;;;;;;;1798159;78;26314;-47
2022/05/27 08:06:03;;;;;;;0.57;0.53;;;;;;;;;;1799277;78;26363;-57
2022/05/27 08:08:31;;;;;;;1.10;0.80;;;;;;;;;;1796416;78;26375;-57
2022/05/27 08:10:58;;;;;;;2.37;0.60;;;;;;;;;;1799144;78;26293;-63
2022/05/27 08:13:26;;;;;;;1.60;0.70;;;;;;;;;;1798943;78;26827;-54
2022/05/27 08:15:55;;;;;;;0.70;0.70;;;;;;;;;;1799341;78;26281;-48
2022/05/27 08:18:23;;;;;;;0.75;0.70;;;;;;;;;;1800514;78;26305;-54
2022/05/27 08:20:50;;;;;;;2.10;0.70;;;;;;;;;;1798716;78;26345;-55
2022/05/27 08:23:17;;;;;;;3.02;0.65;;;;;;;;;;1804277;78;26643;-50
2022/05/27 08:25:45;;;;;;;0.50;0.50;;;;;;;;;;1802017;79;26745;-54
2022/05/27 08:28:12;;;;;;;0.60;0.60;;;;;;;;;;1821845;78;26262;-55
2022/05/27 08:30:40;;;;;;;1.52;0.50;;;;;;;;;;1804749;79;26277;-60
2022/05/27 08:33:07;;;;;;;0.62;0.62;;;;;;;;;;1803933;78;26333;-64
2022/05/27 08:38:23;;;;;;;2.52;1.07;;;;;;;;;;1801289;78;26328;-57
2022/05/27 08:40:52;;;;;;;4.45;0.90;;;;;;;;;;1796599;79;26333;-63
2022/05/27 08:43:27;;;;;;;8.53;1.30;;;;;;;;;;1799215;78;26393;-51
2022/05/27 08:45:55;;;;;;;0.88;0.70;;;;;;;;;;1801511;79;26730;-56
2022/05/27 08:48:24;;;;;;;13.45;0.90;;;;;;;;;;1802251;79;26269;-58
2022/05/27 08:50:53;;;;;;;4.95;0.90;;;;;;;;;;1801126;79;26751;-56
2022/05/27 08:53:28;;;;;;;1.22;0.62;;;;;;;;;;1802132;79;26671;-47
2022/05/27 09:01:31;;;;;;;1.87;0.57;;;;;;;;;;1798563;79;26305;-57
2022/05/27 09:04:00;;;;;;;0.55;0.55;;;;;;;;;;1797544;78;26297;-54
2022/05/27 09:06:37;;;;;;;3.37;0.78;;;;;;;;;;1800233;79;26353;-56
2022/05/27 09:09:06;;;;;;;1.65;0.60;;;;;;;;;;1797117;79;27503;-60
2022/05/27 09:11:52;;;;;;;2.85;0.72;;;;;;;;;;1803588;78;26308;-59
2022/05/27 09:14:24;;;;;;;1.07;0.60;;;;;;;;;;1798561;78;26841;-62
2022/05/27 09:16:56;;;;;;;3.08;0.75;;;;;;;;;;1802042;79;26895;-59
2022/05/27 09:19:31;;;;;;;3.45;0.75;;;;;;;;;;1796223;78;26328;-58
2022/05/27 09:22:00;;;;;;;1.00;0.60;;;;;;;;;;1801265;79;26345;-56
2022/05/27 09:24:30;;;;;;;3.92;0.80;;;;;;;;;;1799152;78;26638;-57
2022/05/27 09:27:02;;;;;;;1.60;0.70;;;;;;;;;;1793496;79;26263;-53
2022/05/27 09:29:49;;;;;;;0.95;0.60;;;;;;;;;;1795092;78;26328;-54
2022/05/27 09:32:27;;;;;;;1.17;0.70;;;;;;;;;;1792572;78;26317;-58
2022/05/27 09:34:55;;;;;;;0.80;0.80;;;;;;;;;;1800714;78;26804;-58
2022/05/27 09:37:30;;;;;;;1.57;0.60;;;;;;;;;;1794371;78;26340;-57
2022/05/27 09:39:59;;;;;;;0.68;0.57;;;;;;;;;;1798443;79;26282;-50
2022/05/27 09:42:28;;;;;;;0.57;0.57;;;;;;;;;;1794004;78;26407;-58
2022/05/27 09:44:56;;;;;;;1.70;0.70;;;;;;;;;;1795804;78;25840;-53
2022/05/27 09:47:25;;;;;;;1.87;0.53;;;;;;;;;;1798982;78;26302;-50
2022/05/27 09:49:54;;;;;;;0.50;0.50;;;;;;;;;;1797867;78;26806;-51
2022/05/27 09:52:24;;;;;;;1.22;0.47;;;;;;;;;;1791769;78;26722;-53
2022/05/27 09:54:54;;;;;;;0.50;0.50;;;;;;;;;;1794105;78;26290;-51
2022/05/27 09:57:25;;;;;;;0.60;0.60;;;;;;;;;;1798669;78;26309;-54
2022/05/27 09:59:56;;;;;;;1.70;0.60;;;;;;;;;;1786881;79;26728;-49
2022/05/27 10:02:36;;;;;;;0.70;0.70;;;;;;;;;;1793047;78;26356;-55
2022/05/27 10:05:08;;;;;;;1.37;0.62;;;;;;;;;;1800395;79;26355;-50
2022/05/27 10:07:39;;;;;;;1.20;0.80;;;;;;;;;;1795464;79;26350;-51
2022/05/27 10:10:08;;;;;;;0.90;0.70;;;;;;;;;;1782509;78;26328;-56
2022/05/27 10:12:35;;;;;;;0.57;0.55;;;;;;;;;;1779095;79;26312;-53
2022/05/27 10:15:03;;;;;;;1.87;0.70;;;;;;;;;;1801265;79;26293;-48
2022/05/27 10:17:36;;;;;;;1.85;0.70;;;;;;;;;;1799917;79;26286;-51
2022/05/27 10:20:08;;;;;;;3.02;0.70;;;;;;;;;;1788751;79;26315;-51
2022/05/27 10:22:35;;;;;;;1.62;1.00;;;;;;;;;;1789429;78;26226;-50
2022/05/27 10:25:04;;;;;;;1.37;0.88;;;;;;;;;;1783361;78;26439;-54
2022/05/27 10:27:36;;;;;;;2.58;0.78;;;;;;;;;;1799319;79;26790;-51
2022/05/27 10:30:06;;;;;;;1.22;1.12;;;;;;;;;;1797704;79;26656;-49
2022/05/27 10:32:38;;;;;;;0.80;0.80;;;;;;;;;;1800796;79;26282;-51
2022/05/27 10:35:07;;;;;;;1.60;0.85;;;;;;;;;;1795470;78;26761;-51
2022/05/27 10:37:36;;;;;;;1.50;0.90;;;;;;;;;;1796332;78;26399;-57
2022/05/27 10:40:20;;;;;;;0.80;0.80;;;;;;;;;;1800237;79;26269;-54
2022/05/27 10:42:52;;;;;;;1.22;0.70;;;;;;;;;;1803166;78;26294;-56
2022/05/27 10:45:21;;;;;;;5.20;1.30;;;;;;;;;;1801872;79;26406;-54
2022/05/27 10:47:50;;;;;;;2.85;0.68;;;;;;;;;;1796459;78;26800;-57
2022/05/27 10:50:37;;;;;;;1.42;0.80;;;;;;;;;;1793511;79;26339;-58
2022/05/27 10:53:24;;;;;;;0.80;0.80;;;;;;;;;;1795131;79;26294;-54
2022/05/27 10:55:53;;;;;;;1.17;0.78;;;;;;;;;;1800925;78;27129;-57
2022/05/27 11:04:05;;;;;;;0.88;0.68;;;;;;;;;;1797438;78;26847;-52
2022/05/27 11:06:35;;;;;;;0.60;0.60;;;;;;;;;;1800800;78;26369;-54
2022/05/27 11:09:19;;;;;;;0.62;0.62;;;;;;;;;;1797724;78;26647;-60
2022/05/27 11:11:48;;;;;;;1.50;0.70;;;;;;;;;;1798402;78;26281;-51
2022/05/27 11:17:03;;;;;;;1.17;1.00;;;;;;;;;;1801230;78;26341;-56
2022/05/27 11:19:44;;;;;;;1.40;0.80;;;;;;;;;;1801008;78;26297;-55
2022/05/27 11:22:15;;;;;;;1.45;0.75;;;;;;;;;;1803650;78;26614;-54
2022/05/27 11:24:50;;;;;;;4.85;1.20;;;;;;;;;;1797940;78;26379;-54
2022/05/27 11:27:36;;;;;;;0.70;0.70;;;;;;;;;;1793856;77;27434;-51
2022/05/27 11:30:05;;;;;;;1.47;0.62;;;;;;;;;;1784924;79;26313;-59
2022/05/27 11:32:53;;;;;;;1.25;0.90;;;;;;;;;;1809626;78;26354;-56
2022/05/27 11:35:22;;;;;;;4.30;1.07;;;;;;;;;;1799256;78;26690;-49
2022/05/27 11:37:53;;;;;;;3.55;1.10;;;;;;;;;;1799434;78;26347;-47
2022/05/27 11:40:31;;;;;;;1.82;1.00;;;;;;;;;;1797003;78;26328;-48
2022/05/27 11:43:07;;;;;;;3.80;1.00;;;;;;;;;;1801423;78;26289;-51
2022/05/27 11:45:35;;;;;;;3.17;1.00;;;;;;;;;;1799651;78;26345;-58
2022/05/27 11:48:06;;;;;;;4.47;1.17;;;;;;;;;;1800411;78;26278;-59
2022/05/27 11:50:35;;;;;;;1.57;0.85;;;;;;;;;;1798431;78;26411;-60
2022/05/27 11:53:04;;;;;;;3.30;0.93;;;;;;;;;;1798033;78;26297;-58
2022/05/27 11:55:45;;;;;;;6.80;1.10;;;;;;;;;;1799072;78;26328;-60
2022/05/27 11:58:18;;;;;;;6.12;0.82;;;;;;;;;;1798098;78;26769;-52
2022/05/27 12:00:49;;;;;;;3.20;0.90;;;;;;;;;;1797292;78;26380;-55
2022/05/27 12:03:18;;;;;;;3.00;0.82;;;;;;;;;;1789855;78;26840;-50
2022/05/27 12:05:56;;;;;;;5.25;1.05;;;;;;;;;;1796939;78;26765;-53
2022/05/27 12:08:37;;;;;;;5.42;0.93;;;;;;;;;;1801767;78;26312;-54
2022/05/27 12:11:12;;;;;;;4.42;0.95;;;;;;;;;;1796779;78;26349;-57
2022/05/27 12:13:41;;;;;;;7.00;0.90;;;;;;;;;;1795386;78;26407;-53
2022/05/27 12:16:10;;;;;;;3.33;0.88;;;;;;;;;;1799753;78;26230;-55
2022/05/27 12:18:48;;;;;;;6.33;1.02;;;;;;;;;;1799424;78;26713;-53
2022/05/27 12:21:17;;;;;;;1.85;0.90;;;;;;;;;;1791775;78;26301;-52
2022/05/27 12:23:46;;;;;;;2.37;0.80;;;;;;;;;;1799312;79;26294;-56
2022/05/27 12:26:14;;;;;;;8.18;1.30;;;;;;;;;;1800116;79;26297;-55
2022/05/27 12:28:43;;;;;;;6.83;1.30;;;;;;;;;;1799952;78;26317;-52
2022/05/27 12:31:11;;;;;;;5.08;1.15;;;;;;;;;;1773729;79;26328;-53
2022/05/27 12:33:39;;;;;;;2.98;1.10;;;;;;;;;;1800018;79;26710;-51
2022/05/27 12:36:08;;;;;;;5.15;1.42;;;;;;;;;;1796446;78;26328;-57
2022/05/27 12:38:39;;;;;;;6.83;1.27;;;;;;;;;;1808627;78;26356;-58
2022/05/27 12:41:08;;;;;;;5.28;1.25;;;;;;;;;;1781833;79;26363;-59
2022/05/27 12:43:40;;;;;;;8.55;1.10;;;;;;;;;;1798511;79;26858;-54
2022/05/27 12:46:15;;;;;;;5.33;1.17;;;;;;;;;;1796856;80;26395;-52
2022/05/27 12:48:44;;;;;;;6.00;1.20;;;;;;;;;;1796693;80;26359;-56
2022/05/27 12:51:21;;;;;;;5.78;1.30;;;;;;;;;;1795338;78;26290;-55
2022/05/27 12:53:50;;;;;;;4.53;0.98;;;;;;;;;;1800373;79;26368;-59
2022/05/27 13:02:19;;;;;;;4.92;1.00;;;;;;;;;;1798479;80;26322;-57
2022/05/27 13:04:48;;;;;;;1.05;0.80;;;;;;;;;;1816488;78;26389;-61
2022/05/27 13:07:16;;;;;;;4.28;0.88;;;;;;;;;;1792960;79;26722;-56
2022/05/27 13:09:46;;;;;;;5.00;1.47;;;;;;;;;;1797087;78;26402;-53
2022/05/27 13:12:32;;;;;;;3.92;1.00;;;;;;;;;;1792741;78;26308;-59
2022/05/27 13:15:01;;;;;;;3.47;0.98;;;;;;;;;;1794529;78;26813;-58
2022/05/27 13:17:32;;;;;;;1.92;0.80;;;;;;;;;;1795345;79;26745;-50
2022/05/27 13:20:11;;;;;;;3.37;0.93;;;;;;;;;;1799689;79;26329;-57
2022/05/27 13:22:40;;;;;;;2.00;0.72;;;;;;;;;;1798668;80;26301;-55
2022/05/27 13:25:17;;;;;;;4.10;0.82;;;;;;;;;;1758904;80;26352;-47
2022/05/27 13:27:46;;;;;;;9.13;1.15;;;;;;;;;;1755229;80;26339;-55
2022/05/27 13:30:14;;;;;;;4.28;0.85;;;;;;;;;;1792546;80;26789;-51
2022/05/27 13:32:52;;;;;;;5.12;0.88;;;;;;;;;;1792464;78;26340;-59
2022/05/27 13:35:20;;;;;;;2.22;0.75;;;;;;;;;;1792815;78;26328;-52
2022/05/27 13:37:50;;;;;;;8.63;1.32;;;;;;;;;;1794671;78;26285;-55
2022/05/27 13:40:27;;;;;;;4.17;0.88;;;;;;;;;;1766708;81;26769;-52
2022/05/27 13:42:56;;;;;;;5.40;0.90;;;;;;;;;;1795416;78;26302;-61
2022/05/27 13:45:24;;;;;;;1.80;0.80;;;;;;;;;;1817522;78;26318;-51
2022/05/27 13:47:54;;;;;;;2.35;0.72;;;;;;;;;;1808194;78;26344;-57
2022/05/27 13:50:25;;;;;;;2.35;0.82;;;;;;;;;;1824639;78;26381;-56
2022/05/27 13:52:53;;;;;;;3.50;0.80;;;;;;;;;;1823448;78;27616;-58
2022/05/27 13:55:21;;;;;;;3.08;0.85;;;;;;;;;;1789543;78;26273;-53
2022/05/27 13:57:49;;;;;;;3.85;0.57;;;;;;;;;;1778956;80;26289;-51
2022/05/27 14:00:17;;;;;;;1.07;0.68;;;;;;;;;;1796880;78;26356;-56
2022/05/27 14:02:46;;;;;;;2.55;0.85;;;;;;;;;;1794807;80;26729;-55
2022/05/27 14:05:21;;;;;;;2.85;0.70;;;;;;;;;;1790958;78;26893;-60
2022/05/27 14:07:50;;;;;;;3.52;0.85;;;;;;;;;;1793666;78;26227;-52
2022/05/27 14:10:22;;;;;;;2.72;0.78;;;;;;;;;;1790969;78;26317;-58
2022/05/27 14:12:49;;;;;;;2.08;0.68;;;;;;;;;;1794754;80;26329;-59
2022/05/27 14:15:22;;;;;;;0.57;0.45;;;;;;;;;;1794785;80;26305;-53
2022/05/27 14:17:50;;;;;;;4.08;0.80;;;;;;;;;;1794471;80;26717;-55
2022/05/27 14:22:39;;;;;;;3.50;0.70;;;;;;;;;;1778731;80;28326;-46
2022/05/27 14:23:04;;;;;;;0.70;0.40;;;;;;;;;;1787271;80;26317;-51
2022/05/27 14:25:36;;;;;;;2.70;0.50;;;;;;;;;;1775480;80;27285;-48
2022/05/27 14:28:05;;;;;;;1.25;0.57;;;;;;;;;;1791407;78;27364;-56
2022/05/27 14:33:29;;;;;;;5.33;0.65;;;;;;;;;;1902108;74;27744;-51
2022/05/27 14:35:58;;;;;;;5.37;0.65;;;;;;;;;;1869762;75;26266;-56
2022/05/27 14:38:29;;;;;;;1.42;0.50;;;;;;;;;;1876571;76;26254;-57
2022/05/27 14:40:57;;;;;;;2.62;0.37;;;;;;;;;;1869113;76;26250;-51
2022/05/27 14:43:26;;;;;;;5.55;0.50;;;;;;;;;;1865980;76;26285;-55
2022/05/27 14:45:55;;;;;;;0.90;0.35;;;;;;;;;;1869421;76;26666;-51
2022/05/27 14:48:24;;;;;;;3.55;0.40;;;;;;;;;;1862642;76;26543;-53
2022/05/27 14:50:51;;;;;;;3.83;0.40;;;;;;;;;;1870040;76;26639;-54
2022/05/27 14:53:20;;;;;;;1.05;0.40;;;;;;;;;;1864628;76;26235;-51
2022/05/27 14:55:48;;;;;;;2.10;0.60;;;;;;;;;;1864800;76;26281;-59
2022/05/27 14:58:16;;;;;;;0.30;0.30;;;;;;;;;;1868187;76;26247;-58
2022/05/27 15:00:45;;;;;;;1.45;0.37;;;;;;;;;;1864209;76;26198;-52
2022/05/27 15:03:27;;;;;;;0.20;0.20;;;;;;;;;;1858990;76;26642;-61
2022/05/27 15:05:55;;;;;;;1.65;0.47;;;;;;;;;;1868620;76;26740;-51
2022/05/27 15:08:23;;;;;;;1.87;0.30;;;;;;;;;;1871234;75;26274;-62
2022/05/27 15:11:09;;;;;;;2.08;0.35;;;;;;;;;;1849635;76;26293;-54
2022/05/27 15:13:48;;;;;;;2.40;0.33;;;;;;;;;;1847365;76;26367;-63
2022/05/27 15:16:16;;;;;;;0.25;0.25;;;;;;;;;;1846046;76;26251;-54
2022/05/27 15:18:48;;;;;;;0.37;0.20;;;;;;;;;;1846114;76;26245;-55
2022/05/27 15:21:18;;;;;;;0.95;0.30;;;;;;;;;;1847483;76;26269;-62
2022/05/27 15:23:47;;;;;;;0.20;0.20;;;;;;;;;;1844889;76;26364;-53
2022/05/27 15:34:35;;;;;;;0.88;0.20;;;;;;;;;;1856247;76;26325;-61
2022/05/27 15:37:03;;;;;;;0.20;0.20;;;;;;;;;;1848863;76;26199;-56
2022/05/27 15:39:30;;;;;;;0.15;0.15;;;;;;;;;;1855916;76;26587;-57
2022/05/27 15:41:58;;;;;;;0.40;0.30;;;;;;;;;;1856658;76;26280;-61
2022/05/27 15:44:25;;;;;;;0.30;0.30;;;;;;;;;;1849715;76;26298;-56